North Myrtle Beach, SC (29582)

3:26 PM EDT on July 29, 2016 (GMT -0400)
APRSWXNET | | Change Station

Elev 9 ft 33.83 °N, 78.67 °W | Updated 52 minutes ago

Scattered Clouds
Scattered Clouds
94 °F
Feels Like 106 °F
N
4
Wind Variable Wind from WNW
Gusts 10.0 mph

Today
High -- | Low -- °F
--% Chance of Precip.
Yesterday
High -- | Low -- °F
Precip. -- in
Pressure 29.93 in
Visibility 10.0 miles
Clouds Scattered Clouds 5000 ft
Heat Index 106 °F
Dew Point 75 °F
Humidity 54%
Rainfall in
Snow Depth Not available.
6:24 AM 8:17 PM
Waning Crescent, 19% visible
METAR KMYR 291845Z 29009G15KT 10SM SCT050 36/21 A2993
Pressure 29.93 in
Visibility 10.0 miles
Clouds Scattered Clouds 5000 ft
Heat Index 106 °F
Dew Point 75 °F
Humidity 54%
Rainfall in
Snow Depth Not available.
6:24 AM 8:17 PM
Waning Crescent, 19% visible
METAR KMYR 291845Z 29009G15KT 10SM SCT050 36/21 A2993

10-Day Weather Forecast

Almanac

Astronomy

Jul. 29, 2016 Rise Set
Actual Time
Civil Twilight
Nautical Twilight
Astronomical Twilight
Moon
Length of Visible Light
Length of Day
Tomorrow will be .
, % of the Moon is Illuminated

Today's Extremes

State Highs State Lows

Community

WunderPhotos

Upload Photos

1,928,399 photos uploaded!

WunderBlog® & News

Nearby

Air Quality

  Air Quality AQ Index Pollutant
Not available.

Snow Depth

Station Depth Elevation

Earthquake Activity

City Distance Mag. Time & Date
Minimum magnitude displayed is 2.5.

Coastal Water Temperatures

Place Temperature

Stations

Nearby Weather Stations

Station Location Temp. Windchill Dew Point Humidity Wind Precip. Elev Updated Type
                   

Watches & Warnings

There are currently no watches in effect.